createdAt,value
2017-05-28T00:00:04.492Z,1018.51
2017-05-28T00:00:45.398Z,1018.53
2017-05-28T00:01:26.282Z,1018.52
2017-05-28T00:02:07.177Z,1018.54
2017-05-28T00:02:48.051Z,1018.53
2017-05-28T00:03:28.946Z,1018.53
2017-05-28T00:04:09.847Z,1018.53
2017-05-28T00:04:50.740Z,1018.51
2017-05-28T00:05:31.622Z,1018.57
2017-05-28T00:06:12.541Z,1018.55
2017-05-28T00:06:53.425Z,1018.54
2017-05-28T00:07:34.343Z,1018.57
2017-05-28T00:08:15.223Z,1018.59
2017-05-28T00:08:56.270Z,1018.58
2017-05-28T00:09:37.076Z,1018.55
2017-05-28T00:10:19.617Z,1018.58
2017-05-28T00:11:00.525Z,1018.56
2017-05-28T00:11:41.442Z,1018.57
2017-05-28T00:12:22.330Z,1018.57
2017-05-28T00:13:03.221Z,1018.57
2017-05-28T00:13:44.109Z,1018.57
2017-05-28T00:14:25.002Z,1018.57
2017-05-28T00:15:05.886Z,1018.56
2017-05-28T00:15:46.781Z,1018.58
2017-05-28T00:16:27.666Z,1018.55
2017-05-28T00:17:08.555Z,1018.53
2017-05-28T00:17:49.456Z,1018.54
2017-05-28T00:18:30.350Z,1018.55
2017-05-28T00:19:11.233Z,1018.51
2017-05-28T00:19:52.128Z,1018.53
2017-05-28T00:20:33.012Z,1018.52
2017-05-28T00:21:13.896Z,1018.49
2017-05-28T00:21:54.781Z,1018.49
2017-05-28T00:22:35.670Z,1018.53
2017-05-28T00:23:16.559Z,1018.5
2017-05-28T00:23:57.450Z,1018.49
2017-05-28T00:24:38.339Z,1018.56
2017-05-28T00:25:19.222Z,1018.54
2017-05-28T00:26:00.127Z,1018.52
2017-05-28T00:26:40.980Z,1018.53
2017-05-28T00:27:21.873Z,1018.49
2017-05-28T00:28:02.767Z,1018.49
2017-05-28T00:28:43.652Z,1018.5
2017-05-28T00:29:24.512Z,1018.47
2017-05-28T00:30:05.391Z,1018.47
2017-05-28T00:30:46.287Z,1018.43
2017-05-28T00:31:27.191Z,1018.45
2017-05-28T00:32:08.083Z,1018.46
2017-05-28T00:32:48.982Z,1018.4
2017-05-28T00:33:29.875Z,1018.44
2017-05-28T00:34:10.766Z,1018.43
2017-05-28T00:34:51.677Z,1018.44
2017-05-28T00:35:32.572Z,1018.43
2017-05-28T00:36:13.459Z,1018.38
2017-05-28T00:36:54.355Z,1018.41
2017-05-28T00:37:35.250Z,1018.38
2017-05-28T00:38:16.138Z,1018.38
2017-05-28T00:38:57.042Z,1018.34
2017-05-28T00:39:37.947Z,1018.37
2017-05-28T00:40:18.831Z,1018.34
2017-05-28T00:41:52.084Z,1018.38
2017-05-28T00:42:32.991Z,1018.37
2017-05-28T00:43:13.874Z,1018.34
2017-05-28T00:43:54.759Z,1018.35
2017-05-28T00:44:35.660Z,1018.36
2017-05-28T00:45:16.552Z,1018.35
2017-05-28T00:45:57.436Z,1018.36
2017-05-28T00:46:38.350Z,1018.34
2017-05-28T00:47:19.254Z,1018.33
2017-05-28T00:48:00.128Z,1018.33
2017-05-28T00:48:41.024Z,1018.31
2017-05-28T00:49:21.914Z,1018.31
2017-05-28T00:50:02.804Z,1018.29
2017-05-28T00:50:43.698Z,1018.29
2017-05-28T00:51:24.591Z,1018.26
2017-05-28T00:52:05.464Z,1018.25
2017-05-28T00:52:46.373Z,1018.26
2017-05-28T00:53:27.271Z,1018.27
2017-05-28T00:54:08.166Z,1018.24
2017-05-28T00:54:49.050Z,1018.26
2017-05-28T00:55:29.945Z,1018.25
2017-05-28T00:56:10.840Z,1018.25
2017-05-28T00:56:51.832Z,1018.24
2017-05-28T00:57:32.702Z,1018.23
2017-05-28T00:58:13.585Z,1018.21
2017-05-28T00:58:54.493Z,1018.22
2017-05-28T00:59:35.441Z,1018.22
2017-05-28T01:00:16.264Z,1018.2
2017-05-28T01:00:57.150Z,1018.15
2017-05-28T01:01:38.044Z,1018.13
2017-05-28T01:02:18.929Z,1018.16
2017-05-28T01:02:59.795Z,1018.16
2017-05-28T01:03:40.704Z,1018.13
2017-05-28T01:04:21.617Z,1018.16
2017-05-28T01:05:02.506Z,1018.17
2017-05-28T01:05:43.402Z,1018.22
2017-05-28T01:06:24.286Z,1018.2
2017-05-28T01:07:05.178Z,1018.23
2017-05-28T01:07:46.077Z,1018.19
2017-05-28T01:08:26.982Z,1018.19
2017-05-28T01:09:07.840Z,1018.18
2017-05-28T01:09:48.750Z,1018.17
2017-05-28T01:10:29.636Z,1018.21
2017-05-28T01:11:10.493Z,1018.17
2017-05-28T01:11:51.407Z,1018.22
2017-05-28T01:12:32.297Z,1018.13
2017-05-28T01:13:13.240Z,1018.16
2017-05-28T01:13:54.128Z,1018.16
2017-05-28T01:14:35.030Z,1018.15
2017-05-28T01:15:15.968Z,1018.18
2017-05-28T01:15:56.802Z,1018.16
2017-05-28T01:16:37.757Z,1018.12
2017-05-28T01:17:18.679Z,1018.14
2017-05-28T01:17:59.558Z,1018.12
2017-05-28T01:18:40.439Z,1018.1
2017-05-28T01:19:21.366Z,1018.11
2017-05-28T01:20:02.239Z,1018.08
2017-05-28T01:20:43.116Z,1018.07
2017-05-28T01:21:24.023Z,1018.09
2017-05-28T01:22:04.918Z,1018.08
2017-05-28T01:22:45.788Z,1018.05
2017-05-28T01:23:26.680Z,1018.07
2017-05-28T01:24:07.579Z,1018.06
2017-05-28T01:24:48.466Z,1018.03
2017-05-28T01:25:29.351Z,1018.06
2017-05-28T01:26:10.262Z,1018.04
2017-05-28T01:26:51.141Z,1018.05
2017-05-28T01:27:32.045Z,1018.01
2017-05-28T01:28:12.948Z,1018.04
2017-05-28T01:28:53.839Z,1018.05
2017-05-28T01:29:34.747Z,1018.03
2017-05-28T01:30:15.618Z,1018.01
2017-05-28T01:30:56.501Z,1018.02
2017-05-28T01:31:37.402Z,1018.03
2017-05-28T01:32:18.294Z,1018.04
2017-05-28T01:32:59.172Z,1018.02
2017-05-28T01:33:40.051Z,1018.02
2017-05-28T01:34:20.959Z,1018.01
2017-05-28T01:35:01.853Z,1018.02
2017-05-28T01:35:42.748Z,1018.02
2017-05-28T01:36:23.645Z,1018.05
2017-05-28T01:37:04.531Z,1018.01
2017-05-28T01:37:45.435Z,1018.01
2017-05-28T01:38:26.322Z,1018
2017-05-28T01:39:07.201Z,1018.01
2017-05-28T01:39:48.112Z,1018.02
2017-05-28T01:40:29.001Z,1018.04
2017-05-28T01:41:09.876Z,1017.98
2017-05-28T01:41:50.781Z,1017.97
2017-05-28T01:42:31.675Z,1017.97
2017-05-28T01:43:12.561Z,1017.97
2017-05-28T01:43:53.464Z,1017.95
2017-05-28T01:44:34.350Z,1017.91
2017-05-28T01:45:15.222Z,1017.91
2017-05-28T01:45:56.110Z,1017.9
2017-05-28T01:46:37.018Z,1017.89
2017-05-28T01:47:17.972Z,1017.87
2017-05-28T01:47:58.822Z,1017.88
2017-05-28T01:48:39.716Z,1017.85
2017-05-28T01:49:20.594Z,1017.85
2017-05-28T01:50:01.470Z,1017.86
2017-05-28T01:50:42.372Z,1017.83
2017-05-28T01:51:23.248Z,1017.82
2017-05-28T01:52:04.145Z,1017.85
2017-05-28T01:52:45.041Z,1017.83
2017-05-28T01:53:25.921Z,1017.82
2017-05-28T01:54:06.812Z,1017.82
2017-05-28T01:54:47.745Z,1017.81
2017-05-28T01:55:28.600Z,1017.81
2017-05-28T01:56:09.461Z,1017.86
2017-05-28T01:56:50.349Z,1017.83
2017-05-28T01:57:31.254Z,1017.83
2017-05-28T01:58:12.134Z,1017.84
2017-05-28T01:58:52.993Z,1017.82
2017-05-28T01:59:33.903Z,1017.82
2017-05-28T02:00:14.812Z,1017.83
2017-05-28T02:00:55.671Z,1017.79
2017-05-28T02:01:36.563Z,1017.78
2017-05-28T02:02:17.469Z,1017.75
2017-05-28T02:02:58.348Z,1017.75
2017-05-28T02:03:39.226Z,1017.75
2017-05-28T02:04:20.137Z,1017.7
2017-05-28T02:05:01.020Z,1017.76
2017-05-28T02:05:41.900Z,1017.76
2017-05-28T02:06:22.789Z,1017.73
2017-05-28T02:07:03.698Z,1017.72
2017-05-28T02:07:44.592Z,1017.72
2017-05-28T02:08:25.494Z,1017.77
2017-05-28T02:09:06.422Z,1017.75
2017-05-28T02:09:47.268Z,1017.79
2017-05-28T02:10:28.164Z,1017.79
2017-05-28T02:11:09.052Z,1017.78
2017-05-28T02:11:49.932Z,1017.79
2017-05-28T02:12:30.840Z,1017.83
2017-05-28T02:13:11.726Z,1017.81
2017-05-28T02:13:52.598Z,1017.82
2017-05-28T02:14:33.495Z,1017.81
2017-05-28T02:15:14.405Z,1017.81
2017-05-28T02:15:55.264Z,1017.83
2017-05-28T02:16:36.166Z,1017.79
2017-05-28T02:17:17.053Z,1017.8
2017-05-28T02:17:57.939Z,1017.78
2017-05-28T02:18:38.812Z,1017.8
2017-05-28T02:19:19.758Z,1017.85
2017-05-28T02:20:00.641Z,1017.84
2017-05-28T02:20:41.549Z,1017.8
2017-05-28T02:21:22.488Z,1017.8
2017-05-28T02:22:03.320Z,1017.81
2017-05-28T02:22:44.212Z,1017.8
2017-05-28T02:23:25.096Z,1017.79
2017-05-28T02:25:34.075Z,1017.76
2017-05-28T02:26:14.979Z,1017.8
2017-05-28T02:26:55.863Z,1017.81
2017-05-28T02:27:36.782Z,1017.82
2017-05-28T02:28:17.668Z,1017.81
2017-05-28T02:28:58.550Z,1017.84
2017-05-28T02:29:39.441Z,1017.79
2017-05-28T02:30:20.326Z,1017.82
2017-05-28T02:31:01.208Z,1017.82
2017-05-28T02:31:42.097Z,1017.78
2017-05-28T02:32:22.994Z,1017.76
2017-05-28T02:33:03.882Z,1017.77
2017-05-28T02:33:44.771Z,1017.77
2017-05-28T02:34:25.668Z,1017.75
2017-05-28T02:35:06.558Z,1017.79
2017-05-28T02:35:47.431Z,1017.82
2017-05-28T02:36:28.328Z,1017.8
2017-05-28T02:37:09.215Z,1017.78
2017-05-28T02:37:50.089Z,1017.8
2017-05-28T02:38:30.977Z,1017.78
2017-05-28T02:39:11.866Z,1017.78
2017-05-28T02:39:52.748Z,1017.75
2017-05-28T02:40:33.627Z,1017.76
2017-05-28T02:41:14.522Z,1017.75
2017-05-28T02:41:55.414Z,1017.78
2017-05-28T02:42:36.299Z,1017.76
2017-05-28T02:43:17.177Z,1017.78
2017-05-28T02:43:58.069Z,1017.78
2017-05-28T02:44:38.950Z,1017.79
2017-05-28T02:45:19.841Z,1017.8
2017-05-28T02:46:00.740Z,1017.79
2017-05-28T02:46:41.655Z,1017.78
2017-05-28T02:47:22.544Z,1017.8
2017-05-28T02:48:03.458Z,1017.79
2017-05-28T02:48:44.331Z,1017.77
2017-05-28T02:49:25.208Z,1017.8
2017-05-28T02:50:06.106Z,1017.79
2017-05-28T02:50:47.011Z,1017.78
2017-05-28T02:51:27.921Z,1017.76
2017-05-28T02:52:08.807Z,1017.74
2017-05-28T02:52:49.702Z,1017.76
2017-05-28T02:53:30.624Z,1017.74
2017-05-28T02:54:11.511Z,1017.7
2017-05-28T02:54:52.412Z,1017.7
2017-05-28T02:55:33.303Z,1017.75
2017-05-28T02:56:14.171Z,1017.73
2017-05-28T02:56:55.061Z,1017.73
2017-05-28T02:57:35.976Z,1017.75
2017-05-28T02:58:16.874Z,1017.71
2017-05-28T02:58:57.769Z,1017.73
2017-05-28T02:59:38.648Z,1017.73
2017-05-28T03:00:19.532Z,1017.73
2017-05-28T03:01:00.423Z,1017.72
2017-05-28T03:01:41.314Z,1017.71
2017-05-28T03:02:22.190Z,1017.71
2017-05-28T03:03:03.084Z,1017.7
2017-05-28T03:03:43.981Z,1017.73
2017-05-28T03:04:24.867Z,1017.7
2017-05-28T03:05:05.749Z,1017.69
2017-05-28T03:05:46.646Z,1017.64
2017-05-28T03:06:27.531Z,1017.67
2017-05-28T03:07:08.417Z,1017.64
2017-05-28T03:07:49.318Z,1017.6
2017-05-28T03:08:30.211Z,1017.59
2017-05-28T03:09:11.089Z,1017.58
2017-05-28T03:09:51.995Z,1017.61
2017-05-28T03:10:32.883Z,1017.64
2017-05-28T03:11:13.765Z,1017.61
2017-05-28T03:11:54.656Z,1017.58
2017-05-28T03:12:35.557Z,1017.61
2017-05-28T03:13:16.432Z,1017.63
2017-05-28T03:13:57.311Z,1017.61
2017-05-28T03:14:38.208Z,1017.62
2017-05-28T03:15:19.131Z,1017.6
2017-05-28T03:15:59.985Z,1017.62
2017-05-28T03:16:40.882Z,1017.57
2017-05-28T03:17:21.769Z,1017.57
2017-05-28T03:18:02.632Z,1017.56
2017-05-28T03:18:43.499Z,1017.56
2017-05-28T03:19:24.384Z,1017.56
2017-05-28T03:20:05.274Z,1017.55
2017-05-28T03:20:46.166Z,1017.55
2017-05-28T03:21:27.070Z,1017.57
2017-05-28T03:22:07.962Z,1017.58
2017-05-28T03:22:48.847Z,1017.57
2017-05-28T03:23:29.705Z,1017.6
2017-05-28T03:24:10.573Z,1017.62
2017-05-28T03:24:51.459Z,1017.64
2017-05-28T03:25:32.352Z,1017.63
2017-05-28T03:26:13.232Z,1017.61
2017-05-28T03:26:54.118Z,1017.65
2017-05-28T03:27:35.004Z,1017.65
2017-05-28T03:29:08.235Z,1017.62
2017-05-28T03:29:49.131Z,1017.62
2017-05-28T03:30:30.017Z,1017.58
2017-05-28T03:31:10.905Z,1017.62
2017-05-28T03:31:51.786Z,1017.65
2017-05-28T03:32:32.687Z,1017.64
2017-05-28T03:33:13.583Z,1017.63
2017-05-28T03:33:54.454Z,1017.6
2017-05-28T03:34:35.332Z,1017.64
2017-05-28T03:35:16.225Z,1017.63
2017-05-28T03:35:57.116Z,1017.66
2017-05-28T03:36:37.983Z,1017.68
2017-05-28T03:37:18.863Z,1017.69
2017-05-28T03:37:59.756Z,1017.65
2017-05-28T03:38:40.669Z,1017.69
2017-05-28T03:39:21.544Z,1017.67
2017-05-28T03:40:02.436Z,1017.69
2017-05-28T03:40:43.326Z,1017.64
2017-05-28T03:41:24.211Z,1017.68
2017-05-28T03:42:05.112Z,1017.64
2017-05-28T03:42:46.001Z,1017.7
2017-05-28T03:43:26.891Z,1017.71
2017-05-28T03:44:07.786Z,1017.71
2017-05-28T03:44:48.669Z,1017.71
2017-05-28T03:45:29.555Z,1017.68
2017-05-28T03:46:10.451Z,1017.68
2017-05-28T03:46:51.337Z,1017.66
2017-05-28T03:47:32.228Z,1017.64
2017-05-28T03:48:13.121Z,1017.66
2017-05-28T03:48:54.012Z,1017.66
2017-05-28T03:49:34.895Z,1017.66
2017-05-28T03:50:15.811Z,1017.62
2017-05-28T03:50:56.702Z,1017.65
2017-05-28T03:51:37.588Z,1017.63
2017-05-28T03:52:18.488Z,1017.66
2017-05-28T03:52:59.390Z,1017.61
2017-05-28T03:53:40.262Z,1017.65
2017-05-28T03:54:21.167Z,1017.65
2017-05-28T03:55:02.046Z,1017.66
2017-05-28T03:55:42.933Z,1017.7
2017-05-28T03:56:23.828Z,1017.68
2017-05-28T03:57:04.706Z,1017.67
2017-05-28T03:57:45.594Z,1017.66
2017-05-28T03:58:26.471Z,1017.63
2017-05-28T03:59:07.374Z,1017.63
2017-05-28T03:59:48.265Z,1017.56
2017-05-28T04:00:29.122Z,1017.51
2017-05-28T04:01:09.993Z,1017.53
2017-05-28T04:01:50.879Z,1017.57
2017-05-28T04:02:31.771Z,1017.57
2017-05-28T04:03:12.658Z,1017.52
2017-05-28T04:03:53.540Z,1017.52
2017-05-28T04:04:34.444Z,1017.56
2017-05-28T04:05:15.345Z,1017.61
2017-05-28T04:05:56.200Z,1017.56
2017-05-28T04:06:37.074Z,1017.56
2017-05-28T04:07:17.977Z,1017.55
2017-05-28T04:07:58.867Z,1017.49
2017-05-28T04:08:39.738Z,1017.51
2017-05-28T04:09:20.636Z,1017.5
2017-05-28T04:10:01.513Z,1017.48
2017-05-28T04:10:42.405Z,1017.45
2017-05-28T04:11:23.268Z,1017.46
2017-05-28T04:12:04.163Z,1017.47
2017-05-28T04:12:45.083Z,1017.46
2017-05-28T04:13:25.958Z,1017.43
2017-05-28T04:14:06.864Z,1017.47
2017-05-28T04:14:48.446Z,1017.46
2017-05-28T04:15:29.324Z,1017.45
2017-05-28T04:16:10.192Z,1017.43
2017-05-28T04:16:51.072Z,1017.47
2017-05-28T04:17:31.976Z,1017.47
2017-05-28T04:18:12.861Z,1017.45
2017-05-28T04:18:53.730Z,1017.48
2017-05-28T04:19:34.625Z,1017.46
2017-05-28T04:20:15.537Z,1017.48
2017-05-28T04:20:56.436Z,1017.44
2017-05-28T04:21:37.329Z,1017.44
2017-05-28T04:22:18.213Z,1017.44
2017-05-28T04:22:59.124Z,1017.42
2017-05-28T04:23:40.031Z,1017.41
2017-05-28T04:24:20.907Z,1017.41
2017-05-28T04:25:01.860Z,1017.38
2017-05-28T04:25:42.703Z,1017.4
2017-05-28T04:26:23.591Z,1017.39
2017-05-28T04:27:04.496Z,1017.39
2017-05-28T04:27:45.386Z,1017.4
2017-05-28T04:28:26.267Z,1017.39
2017-05-28T04:29:07.197Z,1017.38
2017-05-28T04:29:48.087Z,1017.43
2017-05-28T04:30:28.997Z,1017.39
2017-05-28T04:31:09.873Z,1017.4
2017-05-28T04:31:50.742Z,1017.37
2017-05-28T04:32:31.633Z,1017.4
2017-05-28T04:33:12.532Z,1017.41
2017-05-28T04:33:53.416Z,1017.39
2017-05-28T04:34:34.309Z,1017.4
2017-05-28T04:35:15.200Z,1017.35
2017-05-28T04:35:56.082Z,1017.38
2017-05-28T04:36:36.990Z,1017.37
2017-05-28T04:37:17.894Z,1017.37
2017-05-28T04:37:58.767Z,1017.37
2017-05-28T04:38:39.659Z,1017.37
2017-05-28T04:39:20.569Z,1017.38
2017-05-28T04:40:01.453Z,1017.36
2017-05-28T04:40:42.340Z,1017.34
2017-05-28T04:41:23.232Z,1017.37
2017-05-28T04:42:04.117Z,1017.35
2017-05-28T04:42:44.990Z,1017.38
2017-05-28T04:43:25.904Z,1017.38
2017-05-28T04:44:06.792Z,1017.41
2017-05-28T04:44:47.656Z,1017.44
2017-05-28T04:45:28.551Z,1017.47
2017-05-28T04:46:09.448Z,1017.46
2017-05-28T04:46:50.333Z,1017.48
2017-05-28T04:47:31.213Z,1017.46
2017-05-28T04:48:12.123Z,1017.42
2017-05-28T04:48:53.010Z,1017.36
2017-05-28T04:49:33.898Z,1017.41
2017-05-28T04:50:14.793Z,1017.39
2017-05-28T04:50:55.684Z,1017.4
2017-05-28T04:51:36.556Z,1017.39
2017-05-28T04:52:17.470Z,1017.37
2017-05-28T04:52:58.351Z,1017.38
2017-05-28T04:53:39.228Z,1017.4
2017-05-28T04:54:20.134Z,1017.38
2017-05-28T04:55:01.014Z,1017.34
2017-05-28T04:55:41.894Z,1017.36
2017-05-28T04:56:22.774Z,1017.32
2017-05-28T04:57:03.670Z,1017.35
2017-05-28T04:57:44.558Z,1017.35
2017-05-28T04:58:25.451Z,1017.34
2017-05-28T04:59:06.358Z,1017.34
2017-05-28T04:59:47.241Z,1017.34
2017-05-28T05:00:28.148Z,1017.31
2017-05-28T05:01:09.055Z,1017.35
2017-05-28T05:01:49.920Z,1017.33
2017-05-28T05:02:30.815Z,1017.29
2017-05-28T05:03:11.726Z,1017.29
2017-05-28T05:03:52.584Z,1017.24
2017-05-28T05:04:33.460Z,1017.27
2017-05-28T05:05:14.351Z,1017.29
2017-05-28T05:05:55.249Z,1017.26
2017-05-28T05:06:36.190Z,1017.28
2017-05-28T05:07:17.018Z,1017.28
2017-05-28T05:07:57.922Z,1017.28
2017-05-28T05:08:38.790Z,1017.31
2017-05-28T05:09:19.661Z,1017.33
2017-05-28T05:10:58.054Z,1017.34
2017-05-28T05:11:38.927Z,1017.27
2017-05-28T05:12:19.813Z,1017.26
2017-05-28T05:13:00.706Z,1017.28
2017-05-28T05:13:41.586Z,1017.3
2017-05-28T05:14:22.466Z,1017.33
2017-05-28T05:15:03.390Z,1017.29
2017-05-28T05:15:44.267Z,1017.31
2017-05-28T05:16:25.154Z,1017.29
2017-05-28T05:17:06.059Z,1017.34
2017-05-28T05:17:46.953Z,1017.27
2017-05-28T05:18:27.863Z,1017.27
2017-05-28T05:20:01.112Z,1017.3
2017-05-28T05:20:42.021Z,1017.26
2017-05-28T05:21:22.906Z,1017.27
2017-05-28T05:22:03.770Z,1017.29
2017-05-28T05:22:44.685Z,1017.3
2017-05-28T05:23:25.581Z,1017.27
2017-05-28T05:24:06.466Z,1017.27
2017-05-28T05:24:47.368Z,1017.31
2017-05-28T05:25:28.255Z,1017.31
2017-05-28T05:26:09.129Z,1017.26
2017-05-28T05:26:50.011Z,1017.29
2017-05-28T05:27:30.915Z,1017.29
2017-05-28T05:28:11.803Z,1017.3
2017-05-28T05:28:52.670Z,1017.29
2017-05-28T05:29:33.563Z,1017.32
2017-05-28T05:30:14.452Z,1017.33
2017-05-28T05:30:55.333Z,1017.29
2017-05-28T05:31:36.223Z,1017.31
2017-05-28T05:32:17.125Z,1017.32
2017-05-28T05:32:58.011Z,1017.28
2017-05-28T05:33:38.888Z,1017.29
2017-05-28T05:34:19.802Z,1017.3
2017-05-28T05:35:00.685Z,1017.32
2017-05-28T05:35:41.603Z,1017.31
2017-05-28T05:36:22.495Z,1017.33
2017-05-28T05:37:03.372Z,1017.3
2017-05-28T05:37:44.264Z,1017.32
2017-05-28T05:38:25.180Z,1017.31
2017-05-28T05:39:06.066Z,1017.32
2017-05-28T05:39:46.972Z,1017.32
2017-05-28T05:40:27.856Z,1017.3
2017-05-28T05:41:08.754Z,1017.3
2017-05-28T05:41:49.647Z,1017.3
2017-05-28T05:42:30.529Z,1017.29
2017-05-28T05:43:11.414Z,1017.29
2017-05-28T05:43:52.308Z,1017.27
2017-05-28T05:44:33.212Z,1017.33
2017-05-28T05:45:14.090Z,1017.34
2017-05-28T05:45:54.997Z,1017.32
2017-05-28T05:46:35.886Z,1017.32
2017-05-28T05:47:16.767Z,1017.35
2017-05-28T05:47:57.665Z,1017.36
2017-05-28T05:48:38.563Z,1017.32
2017-05-28T05:49:19.467Z,1017.32
2017-05-28T05:50:00.370Z,1017.31
2017-05-28T05:50:41.237Z,1017.33
2017-05-28T05:51:22.122Z,1017.35
2017-05-28T05:52:03.019Z,1017.31
2017-05-28T05:52:43.908Z,1017.3
2017-05-28T05:53:24.790Z,1017.32
2017-05-28T05:54:05.683Z,1017.28
2017-05-28T05:54:46.592Z,1017.35
2017-05-28T05:55:27.462Z,1017.35
2017-05-28T05:56:08.343Z,1017.37
2017-05-28T05:56:49.235Z,1017.34
2017-05-28T05:57:30.123Z,1017.36
2017-05-28T05:58:11.003Z,1017.37
2017-05-28T05:58:51.907Z,1017.35
2017-05-28T05:59:32.794Z,1017.36
2017-05-28T06:00:13.691Z,1017.37
2017-05-28T06:00:54.586Z,1017.38
2017-05-28T06:01:35.478Z,1017.38
2017-05-28T06:02:16.376Z,1017.36
2017-05-28T06:02:57.274Z,1017.43
2017-05-28T06:03:38.162Z,1017.42
2017-05-28T06:04:19.062Z,1017.39
2017-05-28T06:04:59.962Z,1017.39
2017-05-28T06:05:40.856Z,1017.41
2017-05-28T06:06:21.756Z,1017.37
2017-05-28T06:07:02.641Z,1017.39
2017-05-28T06:07:43.541Z,1017.42
2017-05-28T06:08:24.442Z,1017.37
2017-05-28T06:09:05.334Z,1017.41
2017-05-28T06:09:46.239Z,1017.41
2017-05-28T06:10:27.124Z,1017.39
2017-05-28T06:11:08.020Z,1017.39
2017-05-28T06:11:48.922Z,1017.39
2017-05-28T06:12:29.811Z,1017.44
2017-05-28T06:13:10.717Z,1017.46
2017-05-28T06:13:51.613Z,1017.46
2017-05-28T06:14:32.500Z,1017.46
2017-05-28T06:15:13.407Z,1017.42
2017-05-28T06:15:54.309Z,1017.44
2017-05-28T06:16:35.224Z,1017.45
2017-05-28T06:17:16.118Z,1017.41
2017-05-28T06:17:57.024Z,1017.41
2017-05-28T06:18:37.928Z,1017.38
2017-05-28T06:19:18.813Z,1017.37
2017-05-28T06:19:59.718Z,1017.39
2017-05-28T06:20:40.626Z,1017.38
2017-05-28T06:21:21.535Z,1017.4
2017-05-28T06:22:02.443Z,1017.41
2017-05-28T06:22:43.325Z,1017.41
2017-05-28T06:23:24.241Z,1017.4
2017-05-28T06:24:05.134Z,1017.41
2017-05-28T06:24:46.039Z,1017.39
2017-05-28T06:25:26.954Z,1017.42
2017-05-28T06:26:07.859Z,1017.36
2017-05-28T06:26:48.754Z,1017.4
2017-05-28T06:27:29.655Z,1017.39
2017-05-28T06:28:10.556Z,1017.39
2017-05-28T06:28:51.450Z,1017.45
2017-05-28T06:29:32.342Z,1017.46
2017-05-28T06:30:13.257Z,1017.41
2017-05-28T06:30:54.167Z,1017.46
2017-05-28T06:31:35.075Z,1017.41
2017-05-28T06:32:15.945Z,1017.38
2017-05-28T06:32:56.871Z,1017.4
2017-05-28T06:33:37.769Z,1017.42
2017-05-28T06:34:18.686Z,1017.39
2017-05-28T06:34:59.604Z,1017.38
2017-05-28T06:35:40.520Z,1017.37
2017-05-28T06:36:21.421Z,1017.43
2017-05-28T06:37:02.338Z,1017.43
2017-05-28T06:37:43.266Z,1017.42
2017-05-28T06:38:24.163Z,1017.45
2017-05-28T06:39:05.061Z,1017.42
2017-05-28T06:39:45.959Z,1017.47
2017-05-28T06:40:26.866Z,1017.41
2017-05-28T06:41:07.777Z,1017.41
2017-05-28T06:41:48.688Z,1017.43
2017-05-28T06:42:29.672Z,1017.39
2017-05-28T06:43:10.580Z,1017.36
2017-05-28T06:43:51.494Z,1017.41
2017-05-28T06:44:32.393Z,1017.39
2017-05-28T06:45:13.339Z,1017.38
2017-05-28T06:45:54.220Z,1017.4
2017-05-28T06:46:35.128Z,1017.38
2017-05-28T06:47:16.039Z,1017.32
2017-05-28T06:47:56.943Z,1017.34
2017-05-28T06:48:37.831Z,1017.35
2017-05-28T06:49:18.732Z,1017.3
2017-05-28T06:49:59.647Z,1017.3
2017-05-28T06:50:40.547Z,1017.31
2017-05-28T06:51:21.450Z,1017.29
2017-05-28T06:52:02.360Z,1017.32
2017-05-28T06:52:43.269Z,1017.33
2017-05-28T06:53:24.181Z,1017.36
2017-05-28T06:54:05.074Z,1017.36
2017-05-28T06:54:45.975Z,1017.39
2017-05-28T06:55:26.892Z,1017.34
2017-05-28T06:56:07.798Z,1017.35
2017-05-28T06:56:48.701Z,1017.33
2017-05-28T06:57:29.599Z,1017.28
2017-05-28T06:58:10.498Z,1017.31
2017-05-28T06:58:51.400Z,1017.28
2017-05-28T06:59:32.301Z,1017.26
2017-05-28T07:00:13.210Z,1017.27
2017-05-28T07:00:54.114Z,1017.25
2017-05-28T07:01:35.027Z,1017.23
2017-05-28T07:02:17.378Z,1017.26
2017-05-28T07:02:58.275Z,1017.28
2017-05-28T07:03:39.187Z,1017.32
2017-05-28T07:04:20.152Z,1017.34
2017-05-28T07:05:01.038Z,1017.35
2017-05-28T07:05:41.945Z,1017.35
2017-05-28T07:06:22.843Z,1017.32
2017-05-28T07:07:03.756Z,1017.3
2017-05-28T07:07:44.658Z,1017.24
2017-05-28T07:08:25.566Z,1017.26
2017-05-28T07:09:06.473Z,1017.24
2017-05-28T07:09:47.392Z,1017.29
2017-05-28T07:10:28.298Z,1017.23
2017-05-28T07:11:09.217Z,1017.27
2017-05-28T07:11:50.122Z,1017.27
2017-05-28T07:12:31.029Z,1017.27
2017-05-28T07:13:11.939Z,1017.27
2017-05-28T07:13:52.848Z,1017.25
2017-05-28T07:14:33.757Z,1017.26
2017-05-28T07:15:14.669Z,1017.22
2017-05-28T07:15:55.568Z,1017.22
2017-05-28T07:16:36.479Z,1017.24
2017-05-28T07:17:17.387Z,1017.24
2017-05-28T07:17:58.293Z,1017.26
2017-05-28T07:18:39.197Z,1017.22
2017-05-28T07:19:20.104Z,1017.18
2017-05-28T07:20:01.009Z,1017.22
2017-05-28T07:20:41.910Z,1017.17
2017-05-28T07:21:22.814Z,1017.2
2017-05-28T07:22:03.714Z,1017.2
2017-05-28T07:22:44.606Z,1017.16
2017-05-28T07:23:25.521Z,1017.16
2017-05-28T07:24:06.431Z,1017.16
2017-05-28T07:24:47.332Z,1017.14
2017-05-28T07:25:28.276Z,1017.1
2017-05-28T07:26:09.177Z,1017.15
2017-05-28T07:26:50.091Z,1017.16
2017-05-28T07:27:30.999Z,1017.12
2017-05-28T07:28:11.909Z,1017.07
2017-05-28T07:28:52.818Z,1017.11
2017-05-28T07:29:33.730Z,1017.13
2017-05-28T07:30:14.634Z,1017.06
2017-05-28T07:30:55.679Z,1017.1
2017-05-28T07:31:36.585Z,1017.03
2017-05-28T07:32:17.488Z,1016.99
2017-05-28T07:32:58.415Z,1017.04
2017-05-28T07:33:39.310Z,1017.04
2017-05-28T07:34:20.221Z,1017.06
2017-05-28T07:35:01.123Z,1017.04
2017-05-28T07:35:42.028Z,1017.02
2017-05-28T07:36:22.936Z,1017.02
2017-05-28T07:37:03.874Z,1017.07
2017-05-28T07:37:44.790Z,1017.04
2017-05-28T07:38:25.694Z,1017.06
2017-05-28T07:39:06.611Z,1017.01
2017-05-28T07:39:47.510Z,1017.02
2017-05-28T07:40:28.417Z,1017
2017-05-28T07:41:09.319Z,1016.97
2017-05-28T07:41:50.225Z,1016.96
2017-05-28T07:42:31.132Z,1016.91
2017-05-28T07:43:12.044Z,1016.95
2017-05-28T07:43:52.950Z,1016.91
2017-05-28T07:44:33.869Z,1016.94
2017-05-28T07:45:14.783Z,1016.85
2017-05-28T07:45:55.697Z,1016.86
2017-05-28T07:46:36.610Z,1016.9
2017-05-28T07:47:17.546Z,1016.9
2017-05-28T07:47:58.450Z,1016.88
2017-05-28T07:48:39.369Z,1016.92
2017-05-28T07:49:20.277Z,1016.95
2017-05-28T07:50:01.182Z,1016.94
2017-05-28T07:50:42.089Z,1016.95
2017-05-28T07:51:23.015Z,1016.89
2017-05-28T07:52:03.906Z,1016.92
2017-05-28T07:52:44.822Z,1016.92
2017-05-28T07:53:25.730Z,1016.91
2017-05-28T07:54:06.641Z,1016.85
2017-05-28T07:54:47.556Z,1016.83
2017-05-28T07:55:28.486Z,1016.8
2017-05-28T07:56:09.392Z,1016.76
2017-05-28T07:56:50.305Z,1016.79
2017-05-28T07:57:31.208Z,1016.8
2017-05-28T07:58:12.125Z,1016.8
2017-05-28T07:58:53.032Z,1016.8
2017-05-28T07:59:33.948Z,1016.75
2017-05-28T08:00:14.862Z,1016.74
2017-05-28T08:00:55.796Z,1016.77
2017-05-28T08:01:36.686Z,1016.75
2017-05-28T08:02:17.604Z,1016.75
2017-05-28T08:02:58.521Z,1016.75
2017-05-28T08:03:39.442Z,1016.71
2017-05-28T08:04:20.341Z,1016.74
2017-05-28T08:05:01.259Z,1016.7
2017-05-28T08:05:42.168Z,1016.74
2017-05-28T08:06:23.081Z,1016.72
2017-05-28T08:07:04.002Z,1016.75
2017-05-28T08:07:44.922Z,1016.69
2017-05-28T08:08:26.295Z,1016.7
2017-05-28T08:09:07.211Z,1016.69
2017-05-28T08:09:48.124Z,1016.67
2017-05-28T08:10:29.086Z,1016.69
2017-05-28T08:11:10.007Z,1016.59
2017-05-28T08:11:50.920Z,1016.6
2017-05-28T08:12:31.831Z,1016.63
2017-05-28T08:13:12.749Z,1016.56
2017-05-28T08:13:53.660Z,1016.56
2017-05-28T08:14:34.577Z,1016.54
2017-05-28T08:15:15.485Z,1016.55
2017-05-28T08:15:56.404Z,1016.56
2017-05-28T08:16:37.315Z,1016.56
2017-05-28T08:17:18.236Z,1016.56
2017-05-28T08:17:59.152Z,1016.58
2017-05-28T08:18:40.063Z,1016.61
2017-05-28T08:19:20.983Z,1016.63
2017-05-28T08:20:01.900Z,1016.58
2017-05-28T08:20:42.825Z,1016.66
2017-05-28T08:21:23.740Z,1016.63